createdAt,value
2018-09-10T00:00:46.280Z,18.80
2018-09-10T00:03:25.737Z,18.70
2018-09-10T00:06:05.142Z,18.90
2018-09-10T00:08:50.907Z,18.70
2018-09-10T00:11:25.774Z,18.60
2018-09-10T00:14:11.063Z,18.60
2018-09-10T00:16:52.672Z,18.60
2018-09-10T00:19:30.185Z,18.60
2018-09-10T00:22:14.259Z,18.60
2018-09-10T00:25:13.989Z,18.70
2018-09-10T00:27:49.177Z,18.60
2018-09-10T00:30:26.419Z,18.60
2018-09-10T00:32:58.759Z,18.60
2018-09-10T00:35:52.887Z,18.50
2018-09-10T00:38:26.670Z,18.50
2018-09-10T00:41:02.108Z,18.50
2018-09-10T00:43:45.183Z,18.50
2018-09-10T00:46:23.658Z,18.50
2018-09-10T00:49:07.615Z,18.50
2018-09-10T00:51:42.622Z,18.50
2018-09-10T00:54:32.558Z,18.50
2018-09-10T00:57:11.288Z,18.50
2018-09-10T00:59:48.440Z,18.50
2018-09-10T01:02:31.853Z,18.50
2018-09-10T01:05:12.435Z,18.40
2018-09-10T01:07:54.009Z,18.40
2018-09-10T01:10:33.749Z,18.30
2018-09-10T01:13:26.708Z,18.20
2018-09-10T01:16:19.720Z,18.20
2018-09-10T01:19:19.302Z,18.10
2018-09-10T01:21:57.181Z,18.10
2018-09-10T01:24:30.512Z,18.00
2018-09-10T01:27:05.971Z,18.00
2018-09-10T01:29:44.519Z,17.90
2018-09-10T01:32:22.842Z,17.90
2018-09-10T01:35:10.618Z,17.90
2018-09-10T01:37:45.162Z,17.90
2018-09-10T01:40:18.642Z,17.90
2018-09-10T01:42:57.708Z,17.80
2018-09-10T01:45:35.162Z,17.80
2018-09-10T01:48:11.577Z,17.70
2018-09-10T01:50:47.647Z,17.70
2018-09-10T01:53:23.631Z,17.60
2018-09-10T01:56:05.338Z,17.60
2018-09-10T01:58:55.168Z,17.50
2018-09-10T02:01:28.205Z,17.50
2018-09-10T02:04:06.092Z,17.40
2018-09-10T02:06:43.975Z,17.40
2018-09-10T02:09:26.431Z,17.40
2018-09-10T02:12:03.365Z,17.30
2018-09-10T02:17:33.324Z,17.30
2018-09-10T02:20:12.759Z,17.20
2018-09-10T02:22:47.265Z,17.20
2018-09-10T02:25:32.247Z,17.20
2018-09-10T02:28:16.427Z,17.20
2018-09-10T02:30:56.421Z,17.20
2018-09-10T02:33:38.376Z,17.30
2018-09-10T02:36:15.421Z,17.30
2018-09-10T02:38:52.600Z,17.40
2018-09-10T02:41:41.326Z,17.40
2018-09-10T02:44:16.638Z,17.40
2018-09-10T02:46:52.755Z,17.50
2018-09-10T02:49:31.304Z,17.40
2018-09-10T02:54:47.958Z,17.40
2018-09-10T02:57:34.999Z,17.30
2018-09-10T03:00:20.720Z,17.40
2018-09-10T03:03:02.480Z,17.30
2018-09-10T03:05:47.181Z,17.30
2018-09-10T03:08:24.287Z,17.30
2018-09-10T03:10:57.658Z,17.30
2018-09-10T03:13:39.035Z,17.40
2018-09-10T03:16:33.648Z,17.40
2018-09-10T03:19:14.048Z,17.50
2018-09-10T03:21:54.345Z,17.50
2018-09-10T03:24:37.465Z,17.50
2018-09-10T03:27:16.104Z,17.40
2018-09-10T03:29:56.908Z,17.50
2018-09-10T03:32:29.834Z,17.50
2018-09-10T03:35:01.201Z,17.50
2018-09-10T03:37:43.091Z,17.50
2018-09-10T03:40:17.826Z,17.50
2018-09-10T03:42:57.152Z,17.40
2018-09-10T03:45:27.776Z,17.50
2018-09-10T03:48:04.530Z,17.50
2018-09-10T03:50:45.394Z,17.50
2018-09-10T03:53:32.895Z,17.60
2018-09-10T03:56:10.356Z,17.50
2018-09-10T03:58:48.727Z,17.50
2018-09-10T04:01:50.244Z,17.50
2018-09-10T04:04:31.518Z,17.50
2018-09-10T04:07:07.185Z,17.50
2018-09-10T04:09:50.262Z,17.50
2018-09-10T04:12:25.523Z,17.50
2018-09-10T04:15:10.415Z,17.50
2018-09-10T04:17:46.699Z,17.40
2018-09-10T04:20:27.227Z,17.30
2018-09-10T04:23:04.847Z,17.30
2018-09-10T04:25:46.320Z,17.20
2018-09-10T04:28:37.915Z,17.20
2018-09-10T04:31:14.149Z,17.20
2018-09-10T04:33:52.145Z,17.10
2018-09-10T04:36:32.616Z,17.20
2018-09-10T04:39:12.462Z,17.20
2018-09-10T04:41:52.163Z,17.10
2018-09-10T04:47:21.927Z,17.00
2018-09-10T04:49:56.602Z,17.00
2018-09-10T04:52:31.115Z,17.00
2018-09-10T04:55:09.289Z,17.00
2018-09-10T04:57:49.554Z,17.00
2018-09-10T05:00:34.629Z,16.90
2018-09-10T05:03:22.647Z,17.00
2018-09-10T05:06:08.631Z,16.90
2018-09-10T05:08:49.974Z,16.90
2018-09-10T05:12:04.886Z,16.90
2018-09-10T05:14:40.617Z,16.90
2018-09-10T05:17:21.629Z,16.90
2018-09-10T05:31:56.725Z,16.90
2018-09-10T05:34:54.386Z,16.80
2018-09-10T05:42:59.817Z,17.00
2018-09-10T05:46:11.018Z,17.00
2018-09-10T05:49:24.510Z,17.20
2018-09-10T05:52:00.668Z,17.40
2018-09-10T05:54:48.264Z,17.60
2018-09-10T05:57:36.618Z,18.00
2018-09-10T06:00:29.047Z,18.10
2018-09-10T06:03:19.575Z,17.90
2018-09-10T06:05:59.716Z,17.80
2018-09-10T06:17:51.014Z,17.70
2018-09-10T06:20:42.629Z,17.70
2018-09-10T06:23:36.611Z,17.70
2018-09-10T06:26:25.276Z,17.50
2018-09-10T06:34:53.581Z,17.50
2018-09-10T06:37:39.541Z,17.60
2018-09-10T06:40:22.181Z,17.80
2018-09-10T06:43:04.763Z,17.70
2018-09-10T06:46:06.289Z,17.70
2018-09-10T06:48:52.479Z,17.90
2018-09-10T06:51:52.874Z,17.80
2018-09-10T06:54:28.998Z,17.70
2018-09-10T06:57:15.721Z,17.80
2018-09-10T06:59:55.621Z,17.80
2018-09-10T07:05:48.249Z,18.10
2018-09-10T07:09:00.169Z,18.50
2018-09-10T07:22:46.774Z,19.00
2018-09-10T07:25:24.049Z,19.00
2018-09-10T07:28:07.009Z,19.00
2018-09-10T07:37:24.988Z,18.80
2018-09-10T07:40:12.844Z,18.70
2018-09-10T07:52:16.318Z,18.70
2018-09-10T07:54:54.547Z,18.60
2018-09-10T07:57:42.201Z,18.80
2018-09-10T08:03:26.506Z,19.10
2018-09-10T08:06:08.252Z,19.70
2018-09-10T08:08:50.908Z,19.80
2018-09-10T08:11:30.965Z,20.00
2018-09-10T08:19:18.063Z,20.10
2018-09-10T08:21:59.724Z,20.60
2018-09-10T08:24:45.963Z,22.40
2018-09-10T08:27:33.767Z,22.40
2018-09-10T08:30:13.716Z,22.30
2018-09-10T08:32:57.078Z,21.90
2018-09-10T08:35:50.301Z,21.60
2018-09-10T08:38:46.717Z,21.10
2018-09-10T08:41:25.722Z,20.70
2018-09-10T09:00:05.748Z,22.90
2018-09-10T09:02:43.551Z,23.20
2018-09-10T09:08:31.226Z,23.50
2018-09-10T09:17:20.323Z,24.10
2018-09-10T09:20:02.941Z,24.30
2018-09-10T09:25:53.571Z,23.80
2018-09-10T09:29:22.437Z,23.80
2018-09-10T09:32:05.517Z,24.50
2018-09-10T09:41:23.593Z,24.90
2018-09-10T09:44:05.833Z,25.30
2018-09-10T10:04:12.367Z,24.20
2018-09-10T10:07:03.984Z,24.00
2018-09-10T10:25:29.462Z,24.00
2018-09-10T10:28:12.776Z,23.60
2018-09-10T10:43:50.950Z,23.80
2018-09-10T10:47:01.440Z,23.80
2018-09-10T10:55:50.741Z,23.10
2018-09-10T10:58:46.984Z,23.10
2018-09-10T11:02:00.920Z,23.30
2018-09-10T11:04:57.437Z,23.30
2018-09-10T11:16:34.896Z,23.50
2018-09-10T11:25:14.386Z,23.40
2018-09-10T11:28:03.860Z,23.60
2018-09-10T11:30:55.780Z,23.70
2018-09-10T11:33:43.763Z,23.80
2018-09-10T12:16:18.240Z,23.10
2018-09-10T12:19:22.571Z,22.90
2018-09-10T14:18:54.712Z,22.90
2018-09-10T14:22:10.405Z,22.60
2018-09-10T14:25:09.132Z,22.60
2018-09-10T14:27:57.985Z,22.60
2018-09-10T14:30:56.582Z,22.60
2018-09-10T14:33:48.159Z,22.60
2018-09-10T14:36:42.489Z,22.60
2018-09-10T14:39:27.687Z,22.80
2018-09-10T14:45:31.097Z,22.90
2018-09-10T14:48:22.554Z,23.00
2018-09-10T14:51:17.010Z,23.10
2018-09-10T15:13:02.319Z,23.00
2018-09-10T15:19:01.455Z,22.80
2018-09-10T15:31:16.310Z,22.60
2018-09-10T15:34:13.013Z,22.60
2018-09-10T15:37:13.070Z,22.80
2018-09-10T15:40:12.708Z,22.70
2018-09-10T15:43:17.100Z,22.60
2018-09-10T16:05:00.784Z,22.60
2018-09-10T16:17:30.767Z,22.50
2018-09-10T16:26:43.600Z,22.60
2018-09-10T16:29:33.581Z,22.70
2018-09-10T17:28:06.408Z,22.70
2018-09-10T17:31:07.649Z,21.70
2018-09-10T17:36:54.456Z,21.70
2018-09-10T17:41:44.617Z,21.60
2018-09-10T17:44:23.411Z,21.50
2018-09-10T17:47:07.924Z,21.50
2018-09-10T18:01:15.710Z,21.20
2018-09-10T18:10:31.650Z,21.10
2018-09-10T18:31:34.043Z,21.30
2018-09-10T18:51:56.140Z,20.40
2018-09-10T19:26:33.579Z,19.60
2018-09-10T19:29:42.511Z,19.50
2018-09-10T19:42:44.329Z,19.50
2018-09-10T19:45:33.081Z,19.30
2018-09-10T19:48:22.357Z,19.20
2018-09-10T19:56:16.436Z,19.20
2018-09-10T19:59:13.539Z,19.20
2018-09-10T20:02:03.378Z,19.10
2018-09-10T20:12:53.291Z,19.00
2018-09-10T20:15:46.630Z,19.00
2018-09-10T20:18:47.680Z,19.00
2018-09-10T20:21:40.637Z,18.90
2018-09-10T20:30:06.346Z,19.00
2018-09-10T20:49:08.199Z,19.10
2018-09-10T20:53:10.896Z,19.20
2018-09-10T20:56:00.973Z,18.90
2018-09-10T20:58:51.100Z,18.90
2018-09-10T21:06:07.188Z,18.80
2018-09-10T21:09:13.089Z,19.10
2018-09-10T21:11:57.294Z,19.70
2018-09-10T21:19:03.630Z,20.10
2018-09-10T21:22:03.079Z,20.20
2018-09-10T21:27:58.978Z,20.30
2018-09-10T21:31:04.143Z,20.00
2018-09-10T21:34:20.830Z,20.00
2018-09-10T21:37:13.958Z,19.70
2018-09-10T21:39:59.551Z,19.40
2018-09-10T21:42:37.214Z,19.20
2018-09-10T21:45:29.314Z,19.10
2018-09-10T21:48:22.089Z,19.00
2018-09-10T21:51:15.436Z,18.90
2018-09-10T21:54:58.405Z,19.00
2018-09-10T21:57:51.496Z,19.20
2018-09-10T22:00:45.822Z,19.20
2018-09-10T22:03:35.360Z,19.20
2018-09-10T22:17:19.211Z,19.40
2018-09-10T22:20:03.220Z,19.30
2018-09-10T22:22:48.894Z,19.20
2018-09-10T22:25:38.134Z,19.10
2018-09-10T22:28:21.466Z,19.10
2018-09-10T22:34:01.998Z,18.90
2018-09-10T22:36:47.322Z,18.80
2018-09-10T22:39:35.871Z,18.60
2018-09-10T23:10:20.409Z,18.50
2018-09-10T23:13:07.640Z,18.40
2018-09-10T23:15:52.654Z,18.30
2018-09-10T23:18:45.076Z,18.40
2018-09-10T23:21:37.907Z,18.30
2018-09-10T23:24:15.370Z,18.20
2018-09-10T23:26:53.347Z,18.10
2018-09-10T23:29:43.067Z,18.10
2018-09-10T23:32:31.128Z,18.10
2018-09-10T23:37:41.456Z,18.00
2018-09-10T23:40:36.161Z,18.10
2018-09-10T23:43:23.706Z,18.10
2018-09-10T23:46:07.086Z,18.10
2018-09-10T23:48:46.683Z,18.10
2018-09-10T23:51:36.214Z,18.10
2018-09-10T23:54:11.345Z,18.10
2018-09-10T23:56:46.373Z,18.00
2018-09-10T23:59:21.141Z,18.10
